sensor_id;sensor_type;location;lat;lon;timestamp;P1;durP1;ratioP1;P2;durP2;ratioP2
78732;SDS011;68056;52.530;5.454;2023-04-01T00:00:18;11.93;;;4.40;;
78732;SDS011;68056;52.530;5.454;2023-04-01T00:02:44;10.90;;;4.35;;
78732;SDS011;68056;52.530;5.454;2023-04-01T00:05:10;7.22;;;3.90;;
78732;SDS011;68056;52.530;5.454;2023-04-01T00:07:37;9.82;;;4.75;;
78732;SDS011;68056;52.530;5.454;2023-04-01T00:10:04;9.27;;;4.50;;
78732;SDS011;68056;52.530;5.454;2023-04-01T00:12:34;10.23;;;4.57;;
78732;SDS011;68056;52.530;5.454;2023-04-01T00:15:00;9.85;;;4.28;;
78732;SDS011;68056;52.530;5.454;2023-04-01T00:17:26;7.82;;;4.20;;
78732;SDS011;68056;52.530;5.454;2023-04-01T00:19:54;10.35;;;4.45;;
78732;SDS011;68056;52.530;5.454;2023-04-01T00:22:21;9.93;;;4.75;;
78732;SDS011;68056;52.530;5.454;2023-04-01T00:24:47;11.25;;;4.68;;
78732;SDS011;68056;52.530;5.454;2023-04-01T00:27:13;13.13;;;4.38;;
78732;SDS011;68056;52.530;5.454;2023-04-01T00:29:41;9.75;;;3.50;;
78732;SDS011;68056;52.530;5.454;2023-04-01T00:32:10;10.60;;;4.10;;
78732;SDS011;68056;52.530;5.454;2023-04-01T00:34:39;13.23;;;3.90;;
78732;SDS011;68056;52.530;5.454;2023-04-01T00:37:06;9.60;;;3.17;;
78732;SDS011;68056;52.530;5.454;2023-04-01T00:39:35;10.02;;;4.00;;
78732;SDS011;68056;52.530;5.454;2023-04-01T00:42:02;8.40;;;3.63;;
78732;SDS011;68056;52.530;5.454;2023-04-01T00:44:32;13.90;;;4.53;;
78732;SDS011;68056;52.530;5.454;2023-04-01T00:47:05;10.65;;;3.75;;
78732;SDS011;68056;52.530;5.454;2023-04-01T00:49:38;8.63;;;3.22;;
78732;SDS011;68056;52.530;5.454;2023-04-01T00:52:07;12.80;;;4.28;;
78732;SDS011;68056;52.530;5.454;2023-04-01T00:54:36;7.20;;;3.53;;
78732;SDS011;68056;52.530;5.454;2023-04-01T00:57:05;9.55;;;2.92;;
78732;SDS011;68056;52.530;5.454;2023-04-01T00:59:52;12.00;;;3.67;;
78732;SDS011;68056;52.530;5.454;2023-04-01T01:02:20;12.80;;;3.47;;
78732;SDS011;68056;52.530;5.454;2023-04-01T01:04:47;10.25;;;3.20;;
78732;SDS011;68056;52.530;5.454;2023-04-01T01:10:02;7.65;;;3.15;;
78732;SDS011;68056;52.530;5.454;2023-04-01T01:31:41;9.75;;;3.33;;
78732;SDS011;68056;52.530;5.454;2023-04-01T01:37:18;7.30;;;2.80;;
78732;SDS011;68056;52.530;5.454;2023-04-01T01:39:51;11.73;;;3.20;;
78732;SDS011;68056;52.530;5.454;2023-04-01T01:42:21;8.48;;;3.40;;
78732;SDS011;68056;52.530;5.454;2023-04-01T01:44:50;7.65;;;3.55;;
78732;SDS011;68056;52.530;5.454;2023-04-01T01:47:17;9.68;;;3.00;;
78732;SDS011;68056;52.530;5.454;2023-04-01T01:49:45;9.30;;;3.05;;
78732;SDS011;68056;52.530;5.454;2023-04-01T01:52:11;7.15;;;2.33;;
78732;SDS011;68056;52.530;5.454;2023-04-01T01:54:46;6.45;;;2.63;;
78732;SDS011;68056;52.530;5.454;2023-04-01T01:57:13;7.43;;;2.58;;
78732;SDS011;68056;52.530;5.454;2023-04-01T01:59:41;7.13;;;2.15;;
78732;SDS011;68056;52.530;5.454;2023-04-01T02:02:10;8.98;;;2.85;;
78732;SDS011;68056;52.530;5.454;2023-04-01T02:04:38;5.20;;;1.85;;
78732;SDS011;68056;52.530;5.454;2023-04-01T02:07:07;7.28;;;2.47;;
78732;SDS011;68056;52.530;5.454;2023-04-01T02:09:40;5.15;;;2.55;;
78732;SDS011;68056;52.530;5.454;2023-04-01T02:12:08;7.88;;;2.28;;
78732;SDS011;68056;52.530;5.454;2023-04-01T02:14:46;9.82;;;2.67;;
78732;SDS011;68056;52.530;5.454;2023-04-01T02:17:17;6.53;;;2.13;;
78732;SDS011;68056;52.530;5.454;2023-04-01T02:22:35;7.45;;;2.33;;
78732;SDS011;68056;52.530;5.454;2023-04-01T02:25:07;5.72;;;2.20;;
78732;SDS011;68056;52.530;5.454;2023-04-01T02:27:39;5.75;;;2.10;;
78732;SDS011;68056;52.530;5.454;2023-04-01T02:30:07;7.68;;;2.22;;
78732;SDS011;68056;52.530;5.454;2023-04-01T02:32:33;4.80;;;1.70;;
78732;SDS011;68056;52.530;5.454;2023-04-01T02:35:04;3.47;;;1.60;;
78732;SDS011;68056;52.530;5.454;2023-04-01T02:37:32;4.50;;;1.55;;
78732;SDS011;68056;52.530;5.454;2023-04-01T02:40:02;5.43;;;1.45;;
78732;SDS011;68056;52.530;5.454;2023-04-01T02:42:29;6.95;;;1.73;;
78732;SDS011;68056;52.530;5.454;2023-04-01T02:44:55;5.70;;;1.85;;
78732;SDS011;68056;52.530;5.454;2023-04-01T02:47:21;4.90;;;2.10;;
78732;SDS011;68056;52.530;5.454;2023-04-01T02:49:46;7.63;;;1.90;;
78732;SDS011;68056;52.530;5.454;2023-04-01T02:52:13;5.32;;;1.98;;
78732;SDS011;68056;52.530;5.454;2023-04-01T02:54:38;7.43;;;1.85;;
78732;SDS011;68056;52.530;5.454;2023-04-01T02:57:04;6.63;;;1.77;;
78732;SDS011;68056;52.530;5.454;2023-04-01T02:59:30;8.00;;;1.80;;
78732;SDS011;68056;52.530;5.454;2023-04-01T03:01:55;5.88;;;1.15;;
78732;SDS011;68056;52.530;5.454;2023-04-01T03:04:21;3.92;;;1.27;;
78732;SDS011;68056;52.530;5.454;2023-04-01T03:06:46;4.82;;;1.90;;
78732;SDS011;68056;52.530;5.454;2023-04-01T03:09:12;5.40;;;1.60;;
78732;SDS011;68056;52.530;5.454;2023-04-01T03:11:37;5.13;;;1.30;;
78732;SDS011;68056;52.530;5.454;2023-04-01T03:14:03;5.22;;;1.50;;
78732;SDS011;68056;52.530;5.454;2023-04-01T03:16:29;7.30;;;1.63;;
78732;SDS011;68056;52.530;5.454;2023-04-01T03:18:54;5.10;;;1.52;;
78732;SDS011;68056;52.530;5.454;2023-04-01T03:21:24;4.28;;;1.52;;
78732;SDS011;68056;52.530;5.454;2023-04-01T03:23:50;6.53;;;2.13;;
78732;SDS011;68056;52.530;5.454;2023-04-01T03:26:16;5.07;;;1.70;;
78732;SDS011;68056;52.530;5.454;2023-04-01T03:28:43;5.45;;;1.98;;
78732;SDS011;68056;52.530;5.454;2023-04-01T03:31:09;6.93;;;1.77;;
78732;SDS011;68056;52.530;5.454;2023-04-01T03:33:35;7.50;;;2.13;;
78732;SDS011;68056;52.530;5.454;2023-04-01T03:36:00;7.70;;;1.95;;
78732;SDS011;68056;52.530;5.454;2023-04-01T03:38:32;9.30;;;2.13;;
78732;SDS011;68056;52.530;5.454;2023-04-01T03:40:58;6.13;;;1.88;;
78732;SDS011;68056;52.530;5.454;2023-04-01T03:43:24;5.97;;;1.75;;
78732;SDS011;68056;52.530;5.454;2023-04-01T03:45:50;6.13;;;2.03;;
78732;SDS011;68056;52.530;5.454;2023-04-01T03:48:16;5.38;;;2.28;;
78732;SDS011;68056;52.530;5.454;2023-04-01T03:50:42;5.78;;;2.70;;
78732;SDS011;68056;52.530;5.454;2023-04-01T03:53:08;5.70;;;1.88;;
78732;SDS011;68056;52.530;5.454;2023-04-01T03:55:35;7.95;;;2.00;;
78732;SDS011;68056;52.530;5.454;2023-04-01T03:58:01;9.25;;;2.20;;
78732;SDS011;68056;52.530;5.454;2023-04-01T04:00:28;4.82;;;1.77;;
78732;SDS011;68056;52.530;5.454;2023-04-01T04:02:54;10.02;;;2.33;;
78732;SDS011;68056;52.530;5.454;2023-04-01T04:05:21;11.15;;;3.00;;
78732;SDS011;68056;52.530;5.454;2023-04-01T04:07:47;10.48;;;2.22;;
78732;SDS011;68056;52.530;5.454;2023-04-01T04:10:13;10.75;;;3.53;;
78732;SDS011;68056;52.530;5.454;2023-04-01T04:12:38;11.55;;;2.88;;
78732;SDS011;68056;52.530;5.454;2023-04-01T04:15:05;9.23;;;2.80;;
78732;SDS011;68056;52.530;5.454;2023-04-01T04:17:31;8.38;;;2.40;;
78732;SDS011;68056;52.530;5.454;2023-04-01T04:19:57;9.70;;;2.95;;
78732;SDS011;68056;52.530;5.454;2023-04-01T04:22:22;10.77;;;3.08;;
78732;SDS011;68056;52.530;5.454;2023-04-01T04:24:48;15.43;;;3.72;;
78732;SDS011;68056;52.530;5.454;2023-04-01T04:27:14;10.98;;;2.83;;
78732;SDS011;68056;52.530;5.454;2023-04-01T04:29:40;9.18;;;2.08;;
78732;SDS011;68056;52.530;5.454;2023-04-01T04:32:05;10.93;;;3.17;;
78732;SDS011;68056;52.530;5.454;2023-04-01T04:34:31;11.63;;;2.92;;
78732;SDS011;68056;52.530;5.454;2023-04-01T04:36:57;7.22;;;2.72;;
78732;SDS011;68056;52.530;5.454;2023-04-01T04:39:23;8.32;;;2.65;;
78732;SDS011;68056;52.530;5.454;2023-04-01T04:41:49;9.95;;;2.80;;
78732;SDS011;68056;52.530;5.454;2023-04-01T04:44:15;8.30;;;3.53;;
78732;SDS011;68056;52.530;5.454;2023-04-01T04:46:40;5.88;;;2.83;;
78732;SDS011;68056;52.530;5.454;2023-04-01T04:49:06;7.65;;;3.10;;
78732;SDS011;68056;52.530;5.454;2023-04-01T04:51:32;7.05;;;3.17;;
78732;SDS011;68056;52.530;5.454;2023-04-01T04:54:01;5.57;;;2.70;;
78732;SDS011;68056;52.530;5.454;2023-04-01T04:56:28;4.47;;;2.88;;
78732;SDS011;68056;52.530;5.454;2023-04-01T04:58:53;6.32;;;3.70;;
78732;SDS011;68056;52.530;5.454;2023-04-01T05:01:19;8.23;;;3.53;;
78732;SDS011;68056;52.530;5.454;2023-04-01T05:03:45;6.95;;;3.35;;
78732;SDS011;68056;52.530;5.454;2023-04-01T05:06:12;6.30;;;3.30;;
78732;SDS011;68056;52.530;5.454;2023-04-01T05:08:38;6.25;;;3.40;;
78732;SDS011;68056;52.530;5.454;2023-04-01T05:11:06;7.47;;;3.58;;
78732;SDS011;68056;52.530;5.454;2023-04-01T05:13:35;7.38;;;3.85;;
78732;SDS011;68056;52.530;5.454;2023-04-01T05:16:01;7.45;;;4.03;;
78732;SDS011;68056;52.530;5.454;2023-04-01T05:18:26;6.75;;;3.38;;
78732;SDS011;68056;52.530;5.454;2023-04-01T05:20:53;9.63;;;4.07;;
78732;SDS011;68056;52.530;5.454;2023-04-01T05:23:19;6.07;;;2.70;;
78732;SDS011;68056;52.530;5.454;2023-04-01T05:28:16;4.82;;;2.20;;
78732;SDS011;68056;52.530;5.454;2023-04-01T05:30:42;3.47;;;1.63;;
78732;SDS011;68056;52.530;5.454;2023-04-01T05:33:09;3.95;;;2.05;;
78732;SDS011;68056;52.530;5.454;2023-04-01T05:35:36;2.63;;;1.08;;
78732;SDS011;68056;52.530;5.454;2023-04-01T05:38:02;1.33;;;0.70;;
78732;SDS011;68056;52.530;5.454;2023-04-01T05:40:28;2.00;;;1.20;;
78732;SDS011;68056;52.530;5.454;2023-04-01T05:42:54;1.95;;;0.93;;
78732;SDS011;68056;52.530;5.454;2023-04-01T05:45:20;2.25;;;1.00;;
78732;SDS011;68056;52.530;5.454;2023-04-01T05:47:46;1.77;;;0.60;;
78732;SDS011;68056;52.530;5.454;2023-04-01T05:50:11;1.50;;;0.75;;
78732;SDS011;68056;52.530;5.454;2023-04-01T05:52:37;1.27;;;0.90;;
78732;SDS011;68056;52.530;5.454;2023-04-01T05:55:03;1.02;;;0.65;;
78732;SDS011;68056;52.530;5.454;2023-04-01T05:57:29;1.95;;;0.82;;
78732;SDS011;68056;52.530;5.454;2023-04-01T05:59:55;3.25;;;1.45;;
78732;SDS011;68056;52.530;5.454;2023-04-01T06:02:21;1.95;;;1.30;;
78732;SDS011;68056;52.530;5.454;2023-04-01T06:04:46;3.40;;;1.70;;
78732;SDS011;68056;52.530;5.454;2023-04-01T06:07:12;2.20;;;1.27;;
78732;SDS011;68056;52.530;5.454;2023-04-01T06:09:39;2.63;;;1.15;;
78732;SDS011;68056;52.530;5.454;2023-04-01T06:12:16;3.28;;;1.35;;
78732;SDS011;68056;52.530;5.454;2023-04-01T06:15:24;2.58;;;1.30;;
78732;SDS011;68056;52.530;5.454;2023-04-01T06:21:30;3.08;;;1.70;;
78732;SDS011;68056;52.530;5.454;2023-04-01T06:26:34;3.80;;;2.08;;
78732;SDS011;68056;52.530;5.454;2023-04-01T06:51:11;4.07;;;1.70;;
78732;SDS011;68056;52.530;5.454;2023-04-01T06:54:07;4.03;;;1.80;;
78732;SDS011;68056;52.530;5.454;2023-04-01T06:56:36;2.60;;;1.50;;
78732;SDS011;68056;52.530;5.454;2023-04-01T07:01:49;2.47;;;1.30;;
78732;SDS011;68056;52.530;5.454;2023-04-01T07:04:22;4.22;;;1.83;;
78732;SDS011;68056;52.530;5.454;2023-04-01T07:06:59;3.88;;;1.92;;
78732;SDS011;68056;52.530;5.454;2023-04-01T07:09:40;4.15;;;2.30;;
78732;SDS011;68056;52.530;5.454;2023-04-01T07:12:12;6.93;;;2.95;;
78732;SDS011;68056;52.530;5.454;2023-04-01T07:14:46;4.68;;;2.47;;
78732;SDS011;68056;52.530;5.454;2023-04-01T07:17:17;5.45;;;2.88;;
78732;SDS011;68056;52.530;5.454;2023-04-01T07:20:00;6.13;;;2.28;;
78732;SDS011;68056;52.530;5.454;2023-04-01T07:22:38;3.38;;;2.30;;
78732;SDS011;68056;52.530;5.454;2023-04-01T07:25:16;4.53;;;2.75;;
78732;SDS011;68056;52.530;5.454;2023-04-01T07:27:45;5.18;;;3.03;;
78732;SDS011;68056;52.530;5.454;2023-04-01T07:30:21;7.57;;;3.35;;
78732;SDS011;68056;52.530;5.454;2023-04-01T07:35:34;5.40;;;3.30;;
78732;SDS011;68056;52.530;5.454;2023-04-01T07:41:11;7.20;;;3.95;;
78732;SDS011;68056;52.530;5.454;2023-04-01T07:44:06;7.78;;;4.07;;
78732;SDS011;68056;52.530;5.454;2023-04-01T07:46:49;7.63;;;4.35;;
78732;SDS011;68056;52.530;5.454;2023-04-01T07:49:28;5.65;;;3.78;;
78732;SDS011;68056;52.530;5.454;2023-04-01T07:52:09;7.70;;;4.53;;
78732;SDS011;68056;52.530;5.454;2023-04-01T07:55:02;7.30;;;4.35;;
78732;SDS011;68056;52.530;5.454;2023-04-01T07:57:52;6.93;;;4.30;;
78732;SDS011;68056;52.530;5.454;2023-04-01T08:03:21;7.70;;;4.18;;
78732;SDS011;68056;52.530;5.454;2023-04-01T08:12:00;7.88;;;4.60;;
78732;SDS011;68056;52.530;5.454;2023-04-01T08:14:47;8.27;;;4.20;;
78732;SDS011;68056;52.530;5.454;2023-04-01T08:17:22;8.50;;;4.68;;
78732;SDS011;68056;52.530;5.454;2023-04-01T08:23:28;7.10;;;4.45;;
78732;SDS011;68056;52.530;5.454;2023-04-01T08:28:44;9.27;;;4.65;;
78732;SDS011;68056;52.530;5.454;2023-04-01T08:33:58;9.18;;;5.10;;
78732;SDS011;68056;52.530;5.454;2023-04-01T08:36:28;9.20;;;5.05;;
78732;SDS011;68056;52.530;5.454;2023-04-01T08:38:59;9.20;;;5.80;;
78732;SDS011;68056;52.530;5.454;2023-04-01T08:46:56;8.13;;;4.93;;
78732;SDS011;68056;52.530;5.454;2023-04-01T08:55:02;7.55;;;4.85;;
78732;SDS011;68056;52.530;5.454;2023-04-01T08:57:53;8.38;;;5.00;;
78732;SDS011;68056;52.530;5.454;2023-04-01T09:00:30;8.73;;;5.47;;
78732;SDS011;68056;52.530;5.454;2023-04-01T09:03:08;9.80;;;5.28;;
78732;SDS011;68056;52.530;5.454;2023-04-01T09:06:31;9.32;;;5.72;;
78732;SDS011;68056;52.530;5.454;2023-04-01T09:14:58;8.90;;;4.78;;
78732;SDS011;68056;52.530;5.454;2023-04-01T09:34:30;2.35;;;1.70;;
78732;SDS011;68056;52.530;5.454;2023-04-01T09:43:16;2.67;;;1.38;;
78732;SDS011;68056;52.530;5.454;2023-04-01T09:45:58;2.70;;;1.42;;
78732;SDS011;68056;52.530;5.454;2023-04-01T09:54:00;1.80;;;1.30;;
78732;SDS011;68056;52.530;5.454;2023-04-01T09:59:47;2.30;;;1.70;;
78732;SDS011;68056;52.530;5.454;2023-04-01T10:07:57;2.58;;;1.90;;
78732;SDS011;68056;52.530;5.454;2023-04-01T10:13:30;4.13;;;1.88;;
78732;SDS011;68056;52.530;5.454;2023-04-01T10:16:09;3.13;;;2.22;;
78732;SDS011;68056;52.530;5.454;2023-04-01T10:24:47;5.30;;;3.22;;
78732;SDS011;68056;52.530;5.454;2023-04-01T10:32:51;6.07;;;3.65;;
78732;SDS011;68056;52.530;5.454;2023-04-01T10:44:20;7.20;;;4.93;;
78732;SDS011;68056;52.530;5.454;2023-04-01T10:50:19;7.57;;;4.55;;
78732;SDS011;68056;52.530;5.454;2023-04-01T10:59:12;7.57;;;4.70;;
78732;SDS011;68056;52.530;5.454;2023-04-01T11:13:13;11.07;;;5.80;;
78732;SDS011;68056;52.530;5.454;2023-04-01T11:22:09;7.72;;;5.03;;
78732;SDS011;68056;52.530;5.454;2023-04-01T11:25:02;6.35;;;4.10;;
78732;SDS011;68056;52.530;5.454;2023-04-01T11:33:11;7.43;;;4.43;;
78732;SDS011;68056;52.530;5.454;2023-04-01T11:41:23;5.18;;;3.30;;
78732;SDS011;68056;52.530;5.454;2023-04-01T11:44:16;7.15;;;4.40;;
78732;SDS011;68056;52.530;5.454;2023-04-01T11:52:18;7.38;;;4.45;;
78732;SDS011;68056;52.530;5.454;2023-04-01T12:00:30;5.93;;;3.35;;
78732;SDS011;68056;52.530;5.454;2023-04-01T12:08:44;8.90;;;5.15;;
78732;SDS011;68056;52.530;5.454;2023-04-01T12:11:23;6.57;;;4.57;;
78732;SDS011;68056;52.530;5.454;2023-04-01T12:38:26;5.18;;;3.67;;
78732;SDS011;68056;52.530;5.454;2023-04-01T12:41:14;5.40;;;3.35;;
78732;SDS011;68056;52.530;5.454;2023-04-01T12:46:52;4.03;;;2.60;;
78732;SDS011;68056;52.530;5.454;2023-04-01T12:49:48;3.50;;;2.72;;
78732;SDS011;68056;52.530;5.454;2023-04-01T12:55:32;3.40;;;2.40;;
78732;SDS011;68056;52.530;5.454;2023-04-01T12:58:15;3.92;;;2.50;;
78732;SDS011;68056;52.530;5.454;2023-04-01T13:04:25;3.67;;;2.47;;
78732;SDS011;68056;52.530;5.454;2023-04-01T13:09:53;3.90;;;3.00;;
78732;SDS011;68056;52.530;5.454;2023-04-01T13:15:21;4.95;;;3.45;;
78732;SDS011;68056;52.530;5.454;2023-04-01T13:20:36;4.43;;;2.95;;
78732;SDS011;68056;52.530;5.454;2023-04-01T13:25:51;3.22;;;2.42;;
78732;SDS011;68056;52.530;5.454;2023-04-01T13:28:30;2.85;;;2.22;;
78732;SDS011;68056;52.530;5.454;2023-04-01T13:37:18;3.58;;;2.75;;
78732;SDS011;68056;52.530;5.454;2023-04-01T13:42:33;4.55;;;3.17;;
78732;SDS011;68056;52.530;5.454;2023-04-01T13:45:17;4.03;;;2.85;;
78732;SDS011;68056;52.530;5.454;2023-04-01T13:47:55;5.97;;;3.63;;
78732;SDS011;68056;52.530;5.454;2023-04-01T13:53:50;3.42;;;2.38;;
78732;SDS011;68056;52.530;5.454;2023-04-01T14:02:04;4.57;;;3.28;;
78732;SDS011;68056;52.530;5.454;2023-04-01T14:07:47;3.60;;;2.67;;
78732;SDS011;68056;52.530;5.454;2023-04-01T14:10:40;4.00;;;2.42;;
78732;SDS011;68056;52.530;5.454;2023-04-01T14:16:14;4.60;;;2.78;;
78732;SDS011;68056;52.530;5.454;2023-04-01T14:19:08;3.80;;;2.63;;
78732;SDS011;68056;52.530;5.454;2023-04-01T14:27:51;4.10;;;2.63;;
78732;SDS011;68056;52.530;5.454;2023-04-01T14:30:35;3.08;;;2.40;;
78732;SDS011;68056;52.530;5.454;2023-04-01T14:47:56;3.13;;;2.35;;
78732;SDS011;68056;52.530;5.454;2023-04-01T14:55:59;2.05;;;1.73;;
78732;SDS011;68056;52.530;5.454;2023-04-01T15:07:12;3.28;;;2.20;;
78732;SDS011;68056;52.530;5.454;2023-04-01T15:10:16;3.28;;;2.22;;
78732;SDS011;68056;52.530;5.454;2023-04-01T15:20:56;2.50;;;1.95;;
78732;SDS011;68056;52.530;5.454;2023-04-01T15:23:54;2.28;;;2.00;;
78732;SDS011;68056;52.530;5.454;2023-04-01T15:32:11;1.60;;;1.40;;
78732;SDS011;68056;52.530;5.454;2023-04-01T15:42:52;1.85;;;1.20;;
78732;SDS011;68056;52.530;5.454;2023-04-01T15:51:47;1.48;;;1.10;;
78732;SDS011;68056;52.530;5.454;2023-04-01T15:54:32;1.20;;;1.10;;
78732;SDS011;68056;52.530;5.454;2023-04-01T16:00:11;1.00;;;0.90;;
78732;SDS011;68056;52.530;5.454;2023-04-01T16:08:37;2.20;;;1.08;;
78732;SDS011;68056;52.530;5.454;2023-04-01T16:11:26;1.00;;;0.90;;
78732;SDS011;68056;52.530;5.454;2023-04-01T16:22:14;1.10;;;1.00;;
78732;SDS011;68056;52.530;5.454;2023-04-01T16:24:53;1.52;;;1.30;;
78732;SDS011;68056;52.530;5.454;2023-04-01T16:36:28;1.02;;;0.93;;
78732;SDS011;68056;52.530;5.454;2023-04-01T16:44:31;2.58;;;1.60;;
78732;SDS011;68056;52.530;5.454;2023-04-01T16:47:40;1.50;;;1.17;;
78732;SDS011;68056;52.530;5.454;2023-04-01T16:55:50;1.30;;;1.20;;
78732;SDS011;68056;52.530;5.454;2023-04-01T17:01:08;1.30;;;1.20;;
78732;SDS011;68056;52.530;5.454;2023-04-01T17:03:49;2.72;;;1.30;;
78732;SDS011;68056;52.530;5.454;2023-04-01T17:06:38;2.75;;;1.25;;
78732;SDS011;68056;52.530;5.454;2023-04-01T17:17:37;1.35;;;1.25;;
78732;SDS011;68056;52.530;5.454;2023-04-01T17:22:49;1.30;;;1.20;;
78732;SDS011;68056;52.530;5.454;2023-04-01T17:25:32;1.65;;;1.55;;
78732;SDS011;68056;52.530;5.454;2023-04-01T17:31:03;4.32;;;2.25;;
78732;SDS011;68056;52.530;5.454;2023-04-01T17:36:16;1.48;;;1.20;;
78732;SDS011;68056;52.530;5.454;2023-04-01T17:49:50;2.33;;;1.83;;
78732;SDS011;68056;52.530;5.454;2023-04-01T17:52:27;2.25;;;1.55;;
78732;SDS011;68056;52.530;5.454;2023-04-01T17:55:15;1.80;;;1.52;;
78732;SDS011;68056;52.530;5.454;2023-04-01T17:58:22;3.65;;;1.75;;
78732;SDS011;68056;52.530;5.454;2023-04-01T18:01:13;2.15;;;1.45;;
78732;SDS011;68056;52.530;5.454;2023-04-01T18:12:19;2.38;;;1.77;;
78732;SDS011;68056;52.530;5.454;2023-04-01T18:15:10;2.10;;;1.80;;
78732;SDS011;68056;52.530;5.454;2023-04-01T18:21:14;2.22;;;1.83;;
78732;SDS011;68056;52.530;5.454;2023-04-01T18:24:26;2.35;;;2.15;;
78732;SDS011;68056;52.530;5.454;2023-04-01T18:26:59;3.25;;;2.00;;
78732;SDS011;68056;52.530;5.454;2023-04-01T18:29:32;3.78;;;2.10;;
78732;SDS011;68056;52.530;5.454;2023-04-01T18:32:08;2.10;;;1.67;;
78732;SDS011;68056;52.530;5.454;2023-04-01T18:35:00;2.38;;;1.73;;
78732;SDS011;68056;52.530;5.454;2023-04-01T18:38:04;2.47;;;1.60;;
78732;SDS011;68056;52.530;5.454;2023-04-01T18:40:43;3.25;;;1.90;;
78732;SDS011;68056;52.530;5.454;2023-04-01T18:43:22;3.10;;;1.85;;
78732;SDS011;68056;52.530;5.454;2023-04-01T18:48:49;4.03;;;2.40;;
78732;SDS011;68056;52.530;5.454;2023-04-01T18:51:41;3.50;;;2.45;;
78732;SDS011;68056;52.530;5.454;2023-04-01T18:54:16;5.38;;;2.80;;
78732;SDS011;68056;52.530;5.454;2023-04-01T18:56:51;7.60;;;2.80;;
78732;SDS011;68056;52.530;5.454;2023-04-01T18:59:38;3.35;;;2.88;;
78732;SDS011;68056;52.530;5.454;2023-04-01T19:05:29;3.83;;;2.53;;
78732;SDS011;68056;52.530;5.454;2023-04-01T19:10:48;3.28;;;2.28;;
78732;SDS011;68056;52.530;5.454;2023-04-01T19:13:31;4.00;;;2.47;;
78732;SDS011;68056;52.530;5.454;2023-04-01T19:17:15;4.35;;;2.92;;
78732;SDS011;68056;52.530;5.454;2023-04-01T19:28:01;3.83;;;2.72;;
78732;SDS011;68056;52.530;5.454;2023-04-01T19:36:39;3.47;;;2.30;;
78732;SDS011;68056;52.530;5.454;2023-04-01T19:39:24;3.50;;;2.60;;
78732;SDS011;68056;52.530;5.454;2023-04-01T19:53:28;3.58;;;2.45;;
78732;SDS011;68056;52.530;5.454;2023-04-01T19:56:04;3.40;;;2.30;;
78732;SDS011;68056;52.530;5.454;2023-04-01T19:58:51;3.25;;;2.45;;
78732;SDS011;68056;52.530;5.454;2023-04-01T20:01:22;4.30;;;2.50;;
78732;SDS011;68056;52.530;5.454;2023-04-01T20:06:57;3.67;;;2.17;;
78732;SDS011;68056;52.530;5.454;2023-04-01T20:14:45;5.75;;;2.58;;
78732;SDS011;68056;52.530;5.454;2023-04-01T20:25:15;3.58;;;2.70;;
78732;SDS011;68056;52.530;5.454;2023-04-01T20:44:12;4.70;;;3.40;;
78732;SDS011;68056;52.530;5.454;2023-04-01T20:46:48;3.47;;;3.00;;
78732;SDS011;68056;52.530;5.454;2023-04-01T20:52:25;4.85;;;2.72;;
78732;SDS011;68056;52.530;5.454;2023-04-01T21:17:08;7.32;;;3.33;;
78732;SDS011;68056;52.530;5.454;2023-04-01T21:20:11;4.63;;;2.85;;
78732;SDS011;68056;52.530;5.454;2023-04-01T21:31:01;5.97;;;4.28;;
78732;SDS011;68056;52.530;5.454;2023-04-01T21:36:52;6.43;;;4.07;;
78732;SDS011;68056;52.530;5.454;2023-04-01T21:45:24;6.45;;;3.85;;
78732;SDS011;68056;52.530;5.454;2023-04-01T21:50:46;4.70;;;3.15;;
78732;SDS011;68056;52.530;5.454;2023-04-01T22:05:16;4.68;;;3.35;;
78732;SDS011;68056;52.530;5.454;2023-04-01T22:07:59;5.47;;;3.92;;
78732;SDS011;68056;52.530;5.454;2023-04-01T22:10:33;7.03;;;4.13;;
78732;SDS011;68056;52.530;5.454;2023-04-01T22:13:23;7.70;;;4.05;;
78732;SDS011;68056;52.530;5.454;2023-04-01T22:18:45;7.68;;;3.97;;
78732;SDS011;68056;52.530;5.454;2023-04-01T22:21:27;7.95;;;4.60;;
78732;SDS011;68056;52.530;5.454;2023-04-01T22:26:38;6.75;;;3.85;;
78732;SDS011;68056;52.530;5.454;2023-04-01T22:31:54;6.35;;;4.55;;
78732;SDS011;68056;52.530;5.454;2023-04-01T22:34:49;6.95;;;4.32;;
78732;SDS011;68056;52.530;5.454;2023-04-01T22:37:38;7.47;;;4.15;;
78732;SDS011;68056;52.530;5.454;2023-04-01T22:43:01;6.97;;;3.90;;
78732;SDS011;68056;52.530;5.454;2023-04-01T22:51:18;8.05;;;4.22;;
78732;SDS011;68056;52.530;5.454;2023-04-01T22:54:01;9.23;;;4.63;;
78732;SDS011;68056;52.530;5.454;2023-04-01T22:56:41;7.63;;;4.78;;
78732;SDS011;68056;52.530;5.454;2023-04-01T22:59:16;5.93;;;4.07;;
78732;SDS011;68056;52.530;5.454;2023-04-01T23:01:44;6.72;;;3.90;;
78732;SDS011;68056;52.530;5.454;2023-04-01T23:04:29;7.82;;;4.88;;
78732;SDS011;68056;52.530;5.454;2023-04-01T23:07:04;10.55;;;4.20;;
78732;SDS011;68056;52.530;5.454;2023-04-01T23:09:45;5.63;;;3.20;;
78732;SDS011;68056;52.530;5.454;2023-04-01T23:12:13;9.75;;;4.63;;
78732;SDS011;68056;52.530;5.454;2023-04-01T23:14:57;9.13;;;4.25;;
78732;SDS011;68056;52.530;5.454;2023-04-01T23:28:43;5.90;;;3.70;;
78732;SDS011;68056;52.530;5.454;2023-04-01T23:34:00;5.88;;;3.78;;
78732;SDS011;68056;52.530;5.454;2023-04-01T23:36:26;5.97;;;3.75;;
78732;SDS011;68056;52.530;5.454;2023-04-01T23:38:53;6.00;;;3.80;;
78732;SDS011;68056;52.530;5.454;2023-04-01T23:41:23;7.20;;;3.65;;
78732;SDS011;68056;52.530;5.454;2023-04-01T23:46:24;7.20;;;3.70;;
78732;SDS011;68056;52.530;5.454;2023-04-01T23:48:51;5.85;;;4.07;;
78732;SDS011;68056;52.530;5.454;2023-04-01T23:51:22;5.72;;;3.90;;
78732;SDS011;68056;52.530;5.454;2023-04-01T23:54:04;5.57;;;4.20;;
78732;SDS011;68056;52.530;5.454;2023-04-01T23:56:38;5.90;;;3.15;;
78732;SDS011;68056;52.530;5.454;2023-04-01T23:59:14;5.93;;;3.15;;
